Latest Weather Observations for Fowlers Gap

IDN60801

Issued at 9:05 pm EST Tuesday 22 July 2014 (issued every 30 minutes, with the page automatically refreshed every 10 minutes)

About weather observations | Map of weather stations | Latest weather observations for NSW | Other Formats
Station Details ID: 046128 Name: FOWLERS GAP AWS Lat: -31.09 Lon: 141.70 Height: 181.0 m
Data from the previous 72 hours. | See also: Recent months at Fowlers Gap
Date/Time
EST
Temp
°C
App
Temp
°C
Dew
Point
Rel
Hum
%
Delta-T
°C
Wind Press
QNH
hPa
Press
MSL
hPa
Rain
since 9 am
mm
Dir
 
Spd
km/h
Gust
km/h
Spd
kts
Gust
kts
22/09:00pm 9.7 6.8 -0.8 48 4.2 SSE 4 9 2 5 1022.7 1022.9 0.0
22/08:30pm 9.2 7.0 -1.8 46 4.2 W 0 0 0 0 1022.4 - 0.0
22/08:00pm 10.9 8.5 -0.5 45 4.6 S 2 6 1 3 1022.4 1022.6 0.0
22/07:30pm 11.4 8.0 -0.7 43 4.9 S 7 7 4 4 1022.3 - 0.0
22/07:00pm 12.6 10.5 -1.0 39 5.5 CALM 0 0 0 0 1022.1 1022.3 0.0
22/06:30pm 15.0 11.5 -1.1 33 6.7 ESE 7 11 4 6 1022.0 - 0.0
22/06:00pm 16.1 12.3 -1.0 31 7.2 ESE 9 13 5 7 1021.6 1021.8 0.0
22/05:30pm 17.3 13.5 -0.9 29 7.8 ESE 9 15 5 8 1021.5 - 0.0
22/05:00pm 18.0 14.1 -1.3 27 8.2 SE 9 17 5 9 1021.4 1021.6 0.0
22/04:30pm 18.2 13.6 -1.1 27 8.3 E 13 20 7 11 1021.0 - 0.0
22/04:00pm 18.3 14.1 -1.0 27 8.3 ESE 11 17 6 9 1021.4 1021.6 0.0
22/03:30pm 18.7 15.3 -0.7 27 8.4 SE 7 17 4 9 1021.7 - 0.0
22/03:00pm 18.6 14.9 -0.2 28 8.2 S 9 13 5 7 1022.0 1022.2 0.0
22/02:30pm 18.5 14.8 0.2 29 8.1 N 9 13 5 7 1022.3 - 0.0
22/02:00pm 18.1 14.5 0.3 30 7.8 E 9 13 5 7 1022.3 1022.5 0.0
22/01:30pm 18.2 14.6 0.4 30 7.9 ENE 9 15 5 8 1022.2 - 0.0
22/01:00pm 17.8 14.3 1.3 33 7.4 ENE 9 13 5 7 1022.8 1023.0 0.0
22/12:30pm 17.6 14.5 1.6 34 7.2 NE 7 13 4 7 1023.6 - 0.0
22/12:00pm 16.3 12.5 1.6 37 6.5 ENE 11 15 6 8 1024.1 1024.3 0.0
22/11:30am 15.8 12.2 2.9 42 5.9 ENE 11 13 6 7 1024.6 - 0.0
22/11:00am 15.0 11.8 3.2 45 5.4 E 9 13 5 7 1025.1 1025.3 0.0
22/10:30am 13.7 10.2 3.5 50 4.6 ENE 11 13 6 7 1025.3 - 0.0
22/10:00am 12.2 9.9 2.9 53 4.1 E 4 7 2 4 1025.3 1025.5 0.0
22/09:30am 8.2 6.3 0.7 59 3.0 CALM 0 0 0 0 1025.1 - 0.0
22/09:00am 6.7 4.6 -0.5 60 2.8 CALM 0 0 0 0 1024.9 1025.1 0.0
22/08:30am 4.5 2.3 -1.3 66 2.1 WNW 0 0 0 0 1024.7 - 0.0
22/08:00am 1.8 -0.6 -2.9 71 1.6 CALM 0 0 0 0 1024.3 1024.5 0.0
22/07:30am 1.0 -1.4 -3.3 73 1.5 CALM 0 0 0 0 1024.1 - 0.0
22/07:00am 1.1 -1.3 -3.2 73 1.5 CALM 0 0 0 0 1023.9 1024.1 0.0
22/06:30am 0.9 -1.6 -3.6 72 1.6 CALM 0 0 0 0 1023.3 - 0.0
22/06:00am 1.2 -1.2 -3.5 71 1.6 WSW 0 0 0 0 1023.1 1023.3 0.0
22/05:30am 1.4 -1.1 -3.6 69 1.8 CALM 0 0 0 0 1023.0 - 0.0
22/05:00am 1.9 -0.5 -3.2 69 1.7 CALM 0 0 0 0 1022.7 1022.9 0.0
22/04:30am 1.8 -0.6 -3.3 69 1.7 CALM 0 0 0 0 1022.7 - 0.0
22/04:00am 2.0 -0.4 -3.5 67 1.8 CALM 0 0 0 0 1022.5 1022.7 0.0
22/03:30am 2.2 -0.2 -3.5 66 1.9 CALM 0 0 0 0 1022.4 - 0.0
22/03:00am 2.5 0.1 -3.4 65 2.0 CALM 0 0 0 0 1022.5 1022.7 0.0
22/02:30am 3.0 0.6 -2.9 65 2.1 CALM 0 0 0 0 1022.4 - 0.0
22/02:00am 3.6 1.3 -2.3 65 2.1 CALM 0 0 0 0 1022.5 1022.7 0.0
22/01:30am 4.1 1.8 -2.3 63 2.3 CALM 0 0 0 0 1022.4 - 0.0
22/01:00am 4.5 1.0 -2.6 60 2.5 W 6 9 3 5 1022.5 1022.7 0.0
22/12:30am 4.6 2.3 -2.7 59 2.6 CALM 0 0 0 0 1022.6 - 0.0
22/12:00am 4.6 0.9 -2.9 58 2.7 WNW 7 7 4 4 1022.7 1022.9 0.0
 
Date/Time
EST
Temp
°C
App
Temp
°C
Dew
Point
Rel
Hum
%
Delta-T
°C
Wind Press
QNH
hPa
Press
MSL
hPa
Rain
since 9 am
mm
Dir
 
Spd
km/h
Gust
km/h
Spd
kts
Gust
kts
21/11:30pm 4.7 2.4 -2.6 59 2.6 CALM 0 0 0 0 1022.4 - 0.0
21/11:00pm 5.0 2.6 -2.8 57 2.8 CALM 0 0 0 0 1022.8 1023.0 0.0
21/10:30pm 5.6 3.3 -2.2 57 2.9 CALM 0 0 0 0 1023.0 - 0.0
21/10:00pm 5.9 3.6 -2.7 54 3.1 CALM 0 0 0 0 1023.1 1023.3 0.0
21/09:30pm 6.5 4.2 -2.4 53 3.3 CALM 0 0 0 0 1022.9 - 0.0
21/09:00pm 7.1 4.8 -2.3 51 3.5 CALM 0 0 0 0 1023.0 1023.2 0.0
21/08:30pm 8.1 5.9 -1.7 50 3.7 CALM 0 0 0 0 1022.9 - 0.0
21/08:00pm 8.8 6.6 -1.9 47 4.1 CALM 0 0 0 0 1022.6 1022.8 0.0
21/07:30pm 10.0 7.8 -1.7 44 4.6 CALM 0 0 0 0 1022.2 - 0.0
21/07:00pm 11.7 9.1 -1.4 40 5.2 E 2 7 1 4 1021.8 1022.0 0.0
21/06:30pm 13.4 10.1 -1.3 36 6.0 E 6 7 3 4 1021.5 - 0.0
21/06:00pm 14.7 10.8 -1.4 33 6.6 E 9 9 5 5 1021.1 1021.2 0.0
21/05:30pm 16.4 12.1 -1.7 29 7.5 ENE 11 13 6 7 1020.7 - 0.0
21/05:00pm 17.3 14.7 -1.4 28 7.9 E 2 9 1 5 1020.7 1020.9 0.0
21/04:30pm 17.3 13.9 -1.9 27 8.0 ENE 6 11 3 6 1020.7 - 0.0
21/04:00pm 18.2 14.9 -1.1 27 8.3 N 6 11 3 6 1020.6 1020.8 0.0
21/03:30pm 17.3 13.3 -1.9 27 8.0 N 9 13 5 7 1020.6 - 0.0
21/03:00pm 17.7 13.8 -1.5 27 8.1 N 9 17 5 9 1020.7 1020.9 0.0
21/02:00pm 16.8 12.6 -0.9 30 7.5 N 11 19 6 10 1021.0 1021.1 0.0
21/01:30pm 16.4 11.5 -0.3 32 7.2 NNE 15 24 8 13 1021.2 - 0.0
21/01:00pm 16.6 11.8 -0.1 32 7.2 NNE 15 20 8 11 1021.8 1022.0 0.0
21/12:30pm 15.6 10.1 0.6 36 6.5 NNE 19 24 10 13 1022.2 - 0.0
21/12:00pm 15.3 10.6 1.1 38 6.2 NNE 15 22 8 12 1022.9 1023.1 0.0
21/11:30am 14.5 10.6 1.1 40 5.8 NNE 11 17 6 9 1023.4 - 0.0
21/11:00am 14.3 11.2 1.6 42 5.5 NE 7 11 4 6 1023.8 1024.0 0.0
21/10:30am 12.8 8.9 1.2 45 5.0 NE 11 15 6 8 1024.0 - 0.0
21/10:00am 12.0 8.5 1.1 47 4.6 ENE 9 13 5 7 1024.2 1024.4 0.0
21/09:30am 10.2 8.4 1.1 53 3.8 CALM 0 0 0 0 1024.1 - 0.0
21/09:00am 6.9 4.2 0.4 63 2.6 SW 4 6 2 3 1023.9 1024.1 0.0
21/08:30am 4.5 2.4 -0.5 70 1.9 CALM 0 0 0 0 1023.8 - 0.0
21/08:00am 1.7 -0.6 -2.1 76 1.3 CALM 0 0 0 0 1023.5 1023.7 0.0
21/07:30am 1.4 -1.6 -1.8 79 1.1 WSW 4 7 2 4 1023.4 - 0.0
21/07:00am 1.8 -0.4 -1.4 79 1.1 CALM 0 0 0 0 1022.9 1023.1 0.0
21/06:30am 2.5 0.4 -0.9 78 1.2 CALM 0 0 0 0 1022.5 - 0.0
21/06:00am 2.5 0.3 -1.5 75 1.4 CALM 0 0 0 0 1022.3 1022.5 0.0
21/05:30am 3.5 1.4 -1.1 72 1.7 CALM 0 0 0 0 1022.4 - 0.0
21/05:00am 4.2 2.2 -0.2 73 1.7 CALM 0 0 0 0 1022.5 1022.7 0.0
21/04:30am 3.9 0.5 -0.5 73 1.7 ENE 7 7 4 4 1022.5 - 0.0
21/04:00am 4.8 2.7 -0.8 67 2.1 CALM 0 0 0 0 1022.6 1022.8 0.0
21/03:30am 5.9 4.0 0.5 68 2.1 CALM 0 0 0 0 1022.8 - 0.0
21/03:00am 6.6 4.6 -0.1 62 2.6 CALM 0 0 0 0 1022.9 1023.1 0.0
21/02:30am 8.1 6.2 0.3 58 3.1 CALM 0 0 0 0 1023.1 - 0.0
21/02:00am 9.6 6.4 1.0 55 3.5 E 7 9 4 5 1023.3 1023.5 0.0
21/01:30am 10.2 7.0 0.8 52 3.9 ESE 7 11 4 6 1023.3 - 0.0
21/01:00am 10.5 7.3 0.8 51 4.0 NE 7 11 4 6 1023.3 1023.5 0.0
21/12:30am 10.7 7.1 0.4 49 4.3 ENE 9 13 5 7 1023.6 - 0.0
21/12:00am 10.9 7.3 0.6 49 4.3 E 9 11 5 6 1023.8 1024.0 0.0
 
Date/Time
EST
Temp
°C
App
Temp
°C
Dew
Point
Rel
Hum
%
Delta-T
°C
Wind Press
QNH
hPa
Press
MSL
hPa
Rain
since 9 am
mm
Dir
 
Spd
km/h
Gust
km/h
Spd
kts
Gust
kts
20/11:30pm 11.6 7.3 1.0 48 4.5 E 13 17 7 9 1024.0 - 0.0
20/11:00pm 11.2 7.6 0.9 49 4.3 ENE 9 13 5 7 1024.2 1024.4 0.0
20/10:30pm 11.1 7.5 0.8 49 4.3 ENE 9 13 5 7 1024.0 - 0.0
20/10:00pm 11.6 7.3 0.7 47 4.5 E 13 20 7 11 1024.1 1024.3 0.0
20/09:30pm 11.9 7.6 0.7 46 4.7 E 13 17 7 9 1024.0 - 0.0
20/09:00pm 11.6 7.6 0.7 47 4.5 E 11 17 6 9 1024.2 1024.4 0.0
20/08:30pm 11.6 8.0 0.4 46 4.7 E 9 13 5 7 1024.2 - 0.0
20/08:00pm 11.8 8.5 0.0 44 4.9 E 7 9 4 5 1024.1 1024.3 0.0
20/07:30pm 12.9 9.2 0.0 41 5.4 ESE 9 15 5 8 1023.9 - 0.0
20/07:00pm 12.4 8.7 0.2 43 5.1 SSE 9 11 5 6 1023.7 1023.9 0.0
20/06:30pm 13.3 9.6 0.0 40 5.6 ESE 9 11 5 6 1023.3 - 0.0
20/06:00pm 13.9 10.6 -0.2 38 5.9 E 7 11 4 6 1023.2 1023.4 0.0
20/05:30pm 14.8 10.7 -0.5 35 6.4 E 11 15 6 8 1023.0 - 0.0
20/05:00pm 15.2 11.1 -0.5 34 6.6 E 11 15 6 8 1023.2 1023.4 0.0
20/04:30pm 15.8 11.6 -0.8 32 7.0 ENE 11 15 6 8 1023.3 - 0.0
20/04:00pm 16.0 11.4 -1.1 31 7.2 NE 13 20 7 11 1023.3 1023.5 0.0
20/03:30pm 15.6 10.7 -0.6 33 6.9 E 15 22 8 12 1023.4 - 0.0
20/03:00pm 15.7 11.3 0.3 35 6.6 ENE 13 15 7 8 1023.6 1023.8 0.0
20/02:30pm 14.9 10.2 1.1 39 6.0 ENE 15 19 8 10 1023.8 - 0.0
20/02:00pm 14.7 11.0 2.3 43 5.5 NE 11 13 6 7 1024.3 1024.5 0.0
20/01:30pm 13.9 10.6 2.2 45 5.2 ENE 9 17 5 9 1024.7 - 0.0
20/01:00pm 13.7 10.6 3.5 50 4.6 E 9 15 5 8 1025.3 1025.5 0.0
20/12:30pm 12.5 8.9 3.2 53 4.2 ENE 11 17 6 9 1025.9 - 0.0
20/12:00pm 12.4 8.1 3.1 53 4.1 NE 15 20 8 11 1026.7 1026.9 0.0
20/11:30am 12.3 7.6 3.0 53 4.1 ENE 17 22 9 12 1027.0 - 0.0
20/11:00am 11.6 7.9 4.3 61 3.3 E 13 19 7 10 1027.5 1027.7 0.0
20/10:30am 10.6 7.5 5.4 70 2.4 E 11 15 6 8 1027.7 - 0.0
20/10:00am 9.8 5.9 5.2 73 2.1 ESE 15 20 8 11 1027.6 1027.8 0.0
20/09:30am 8.5 4.9 4.9 78 1.6 SE 13 17 7 9 1027.8 - 0.0
20/09:00am 7.9 3.9 4.8 81 1.4 SE 15 20 8 11 1027.6 1027.8 0.0
20/08:30am 7.9 3.5 4.8 81 1.4 SE 17 22 9 12 1027.4 - 0.0
20/08:00am 6.6 3.3 4.3 85 1.0 SSE 11 17 6 9 1027.3 1027.5 0.0
20/07:30am 6.4 1.9 4.1 85 1.0 SE 17 24 9 13 1026.7 - 0.0
20/07:00am 6.8 1.7 4.1 83 1.2 SE 20 26 11 14 1026.4 1026.7 0.0
20/06:30am 7.0 1.9 4.1 82 1.3 SE 20 26 11 14 1026.3 - 0.0
20/06:00am 7.2 2.3 4.2 81 1.3 SE 19 24 10 13 1026.0 1026.3 0.0
20/05:30am 7.4 2.3 4.0 79 1.5 SE 20 28 11 15 1025.9 - 0.0
20/05:00am 7.2 2.6 3.6 78 1.5 SE 17 24 9 13 1025.9 1026.2 0.0
20/04:30am 7.1 2.8 3.3 77 1.6 SE 15 20 8 11 1026.0 - 0.0
20/04:00am 7.4 2.8 3.5 76 1.7 SE 17 20 9 11 1026.0 1026.3 0.0
20/03:30am 7.2 2.8 2.9 74 1.8 SE 15 20 8 11 1026.0 - 0.0
20/03:00am 7.8 3.5 3.1 72 2.0 SSE 15 20 8 11 1026.1 1026.4 0.0
20/02:30am 7.7 4.1 3.2 73 1.9 SSE 11 17 6 9 1026.3 - 0.0
20/02:00am 8.4 3.7 3.1 69 2.3 SSE 17 22 9 12 1026.2 1026.5 0.0
20/01:30am 8.8 4.5 3.0 67 2.5 SE 15 20 8 11 1026.3 - 0.0
20/01:00am 9.1 4.7 2.9 65 2.7 SE 15 19 8 10 1026.7 1026.9 0.0
20/12:30am 9.2 4.8 2.8 64 2.8 SE 15 20 8 11 1026.8 - 0.0
20/12:00am 8.9 4.8 2.5 64 2.7 SE 13 17 7 9 1026.8 1027.0 0.0
 
Date/Time
EST
Temp
°C
App
Temp
°C
Dew
Point
Rel
Hum
%
Delta-T
°C
Wind Press
QNH
hPa
Press
MSL
hPa
Rain
since 9 am
mm
Dir
 
Spd
km/h
Gust
km/h
Spd
kts
Gust
kts
19/11:30pm 9.2 4.4 2.5 63 2.9 SE 17 24 9 13 1026.7 - 0.0
19/11:00pm 9.1 5.0 2.2 62 2.9 SE 13 17 7 9 1027.0 1027.2 0.0
19/10:30pm 9.1 4.6 2.2 62 2.9 SSE 15 17 8 9 1027.1 - 0.0
19/10:00pm 8.8 5.0 1.9 62 2.9 SSE 11 15 6 8 1027.3 1027.5 0.0
19/09:30pm 8.5 5.0 1.4 61 2.9 S 9 11 5 6 1027.5 - 0.0

Other Formats:

Comma delimited format used in spreadsheet applications
http://www.bom.gov.au/fwo/IDN60801/IDN60801.94686.axf

JavaScript Object Notation format (JSON) in row-major order
http://www.bom.gov.au/fwo/IDN60801/IDN60801.94686.json